sensor_id;sensor_type;location;lat;lon;timestamp;pressure;altitude;pressure_sealevel;temperature;humidity
63111;BME280;49201;53.426;10.300;2023-02-13T00:01:14;103818.03;;;7.26;100.00
63111;BME280;49201;53.426;10.300;2023-02-13T00:03:40;103811.16;;;7.25;100.00
63111;BME280;49201;53.426;10.300;2023-02-13T00:06:05;103812.16;;;7.27;100.00
63111;BME280;49201;53.426;10.300;2023-02-13T00:08:31;103806.19;;;7.27;100.00
63111;BME280;49201;53.426;10.300;2023-02-13T00:10:56;103818.16;;;7.28;100.00
63111;BME280;49201;53.426;10.300;2023-02-13T00:13:22;103813.84;;;7.27;100.00
63111;BME280;49201;53.426;10.300;2023-02-13T00:15:55;103814.84;;;7.29;100.00
63111;BME280;49201;53.426;10.300;2023-02-13T00:18:21;103817.13;;;7.26;100.00
63111;BME280;49201;53.426;10.300;2023-02-13T00:20:58;103808.84;;;7.28;100.00
63111;BME280;49201;53.426;10.300;2023-02-13T00:23:24;103807.06;;;7.27;100.00
63111;BME280;49201;53.426;10.300;2023-02-13T00:25:49;103808.09;;;7.29;100.00
63111;BME280;49201;53.426;10.300;2023-02-13T00:28:15;103807.19;;;7.29;100.00
63111;BME280;49201;53.426;10.300;2023-02-13T00:30:40;103803.75;;;7.28;100.00
63111;BME280;49201;53.426;10.300;2023-02-13T00:33:06;103807.31;;;7.30;100.00
63111;BME280;49201;53.426;10.300;2023-02-13T00:35:31;103806.53;;;7.31;100.00
63111;BME280;49201;53.426;10.300;2023-02-13T00:37:57;103807.31;;;7.30;100.00
63111;BME280;49201;53.426;10.300;2023-02-13T00:40:23;103801.44;;;7.31;100.00
63111;BME280;49201;53.426;10.300;2023-02-13T00:42:49;103806.53;;;7.31;100.00
63111;BME280;49201;53.426;10.300;2023-02-13T00:45:14;103806.53;;;7.31;100.00
63111;BME280;49201;53.426;10.300;2023-02-13T00:47:40;103803.88;;;7.30;100.00
63111;BME280;49201;53.426;10.300;2023-02-13T00:50:05;103797.91;;;7.29;100.00
63111;BME280;49201;53.426;10.300;2023-02-13T00:52:31;103799.66;;;7.30;100.00
63111;BME280;49201;53.426;10.300;2023-02-13T00:54:56;103808.09;;;7.29;100.00
63111;BME280;49201;53.426;10.300;2023-02-13T00:57:22;103802.09;;;7.29;100.00
63111;BME280;49201;53.426;10.300;2023-02-13T00:59:47;103803.75;;;7.28;100.00
63111;BME280;49201;53.426;10.300;2023-02-13T01:02:13;103807.19;;;7.29;100.00
63111;BME280;49201;53.426;10.300;2023-02-13T01:04:38;103805.53;;;7.29;100.00
63111;BME280;49201;53.426;10.300;2023-02-13T01:07:03;103797.78;;;7.28;100.00
63111;BME280;49201;53.426;10.300;2023-02-13T01:09:29;103798.78;;;7.30;100.00
63111;BME280;49201;53.426;10.300;2023-02-13T01:11:54;103795.22;;;7.28;100.00
63111;BME280;49201;53.426;10.300;2023-02-13T01:14:20;103792.69;;;7.28;100.00
63111;BME280;49201;53.426;10.300;2023-02-13T01:16:47;103789.09;;;7.26;100.00
63111;BME280;49201;53.426;10.300;2023-02-13T01:19:13;103796.75;;;7.26;100.00
63111;BME280;49201;53.426;10.300;2023-02-13T01:21:38;103793.44;;;7.27;100.00
63111;BME280;49201;53.426;10.300;2023-02-13T01:24:04;103792.53;;;7.26;100.00
63111;BME280;49201;53.426;10.300;2023-02-13T01:26:30;103792.53;;;7.26;100.00
63111;BME280;49201;53.426;10.300;2023-02-13T01:28:56;103788.34;;;7.27;100.00
63111;BME280;49201;53.426;10.300;2023-02-13T01:31:22;103786.66;;;7.27;100.00
63111;BME280;49201;53.426;10.300;2023-02-13T01:33:49;103783.25;;;7.27;100.00
63111;BME280;49201;53.426;10.300;2023-02-13T01:36:15;103778.16;;;7.27;100.00
63111;BME280;49201;53.426;10.300;2023-02-13T01:38:41;103785.69;;;7.25;100.00
63111;BME280;49201;53.426;10.300;2023-02-13T01:41:07;103786.31;;;7.23;100.00
63111;BME280;49201;53.426;10.300;2023-02-13T01:43:55;103784.78;;;7.25;100.00
63111;BME280;49201;53.426;10.300;2023-02-13T01:48:59;103775.22;;;7.22;100.00
63111;BME280;49201;53.426;10.300;2023-02-13T01:51:30;103777.00;;;7.23;100.00
63111;BME280;49201;53.426;10.300;2023-02-13T01:54:04;103771.03;;;7.23;100.00
63111;BME280;49201;53.426;10.300;2023-02-13T01:56:41;103770.91;;;7.21;100.00
63111;BME280;49201;53.426;10.300;2023-02-13T01:59:13;103766.69;;;7.22;100.00
63111;BME280;49201;53.426;10.300;2023-02-13T02:01:41;103765.03;;;7.22;100.00
63111;BME280;49201;53.426;10.300;2023-02-13T02:04:24;103763.13;;;7.20;100.00
63111;BME280;49201;53.426;10.300;2023-02-13T02:06:55;103768.34;;;7.21;100.00
63111;BME280;49201;53.426;10.300;2023-02-13T02:09:29;103768.22;;;7.20;100.00
63111;BME280;49201;53.426;10.300;2023-02-13T02:12:21;103763.78;;;7.17;100.00
63111;BME280;49201;53.426;10.300;2023-02-13T02:14:48;103764.56;;;7.16;100.00
63111;BME280;49201;53.426;10.300;2023-02-13T02:17:16;103759.47;;;7.16;100.00
63111;BME280;49201;53.426;10.300;2023-02-13T02:20:05;103759.47;;;7.16;100.00
63111;BME280;49201;53.426;10.300;2023-02-13T02:34:20;103758.44;;;7.14;100.00
63111;BME280;49201;53.426;10.300;2023-02-13T02:37:22;103758.09;;;7.10;100.00
63111;BME280;49201;53.426;10.300;2023-02-13T02:46:20;103756.41;;;7.10;100.00
63111;BME280;49201;53.426;10.300;2023-02-13T02:49:07;103746.22;;;7.10;100.00
63111;BME280;49201;53.426;10.300;2023-02-13T02:52:05;103749.53;;;7.09;100.00
63111;BME280;49201;53.426;10.300;2023-02-13T02:55:07;103760.63;;;7.10;100.00
63111;BME280;49201;53.426;10.300;2023-02-13T02:57:49;103750.94;;;7.06;100.00
63111;BME280;49201;53.426;10.300;2023-02-13T03:00:38;103753.63;;;7.07;100.00
63111;BME280;49201;53.426;10.300;2023-02-13T03:03:24;103759.50;;;7.06;100.00
63111;BME280;49201;53.426;10.300;2023-02-13T03:06:16;103748.41;;;7.06;100.00
63111;BME280;49201;53.426;10.300;2023-02-13T03:08:46;103744.22;;;7.06;100.00
63111;BME280;49201;53.426;10.300;2023-02-13T03:11:36;103746.63;;;7.05;100.00
63111;BME280;49201;53.426;10.300;2023-02-13T03:14:21;103748.94;;;7.02;100.00
63111;BME280;49201;53.426;10.300;2023-02-13T03:16:49;103749.69;;;7.01;100.00
63111;BME280;49201;53.426;10.300;2023-02-13T03:19:51;103747.94;;;7.00;100.00
63111;BME280;49201;53.426;10.300;2023-02-13T03:28:24;103748.78;;;7.00;100.00
63111;BME280;49201;53.426;10.300;2023-02-13T03:31:30;103746.91;;;6.98;100.00
63111;BME280;49201;53.426;10.300;2023-02-13T03:34:07;103752.00;;;6.98;100.00
63111;BME280;49201;53.426;10.300;2023-02-13T03:39:53;103740.81;;;6.96;100.00
63111;BME280;49201;53.426;10.300;2023-02-13T03:42:27;103750.72;;;6.93;100.00
63111;BME280;49201;53.426;10.300;2023-02-13T03:47:53;103749.97;;;6.94;100.00
63111;BME280;49201;53.426;10.300;2023-02-13T03:50:21;103752.16;;;6.89;100.00
63111;BME280;49201;53.426;10.300;2023-02-13T03:52:54;103749.47;;;6.88;100.00
63111;BME280;49201;53.426;10.300;2023-02-13T03:55:27;103747.69;;;6.87;100.00
63111;BME280;49201;53.426;10.300;2023-02-13T03:58:17;103750.47;;;6.90;100.00
63111;BME280;49201;53.426;10.300;2023-02-13T04:01:06;103757.88;;;6.87;100.00
63111;BME280;49201;53.426;10.300;2023-02-13T04:03:42;103757.13;;;6.88;100.00
63111;BME280;49201;53.426;10.300;2023-02-13T04:06:15;103756.97;;;6.86;100.00
63111;BME280;49201;53.426;10.300;2023-02-13T04:08:41;103753.66;;;6.87;100.00
63111;BME280;49201;53.426;10.300;2023-02-13T04:13:51;103755.34;;;6.87;100.00
63111;BME280;49201;53.426;10.300;2023-02-13T04:16:22;103756.13;;;6.86;100.00
63111;BME280;49201;53.426;10.300;2023-02-13T04:18:53;103762.97;;;6.87;100.00
63111;BME280;49201;53.426;10.300;2023-02-13T04:21:19;103760.31;;;6.85;100.00
63111;BME280;49201;53.426;10.300;2023-02-13T04:23:45;103761.09;;;6.84;100.00
63111;BME280;49201;53.426;10.300;2023-02-13T04:26:17;103763.75;;;6.86;100.00
63111;BME280;49201;53.426;10.300;2023-02-13T04:28:43;103759.53;;;6.86;100.00
63111;BME280;49201;53.426;10.300;2023-02-13T04:31:09;103754.44;;;6.86;100.00
63111;BME280;49201;53.426;10.300;2023-02-13T04:33:35;103751.75;;;6.85;100.00
63111;BME280;49201;53.426;10.300;2023-02-13T04:36:00;103751.75;;;6.85;100.00
63111;BME280;49201;53.426;10.300;2023-02-13T04:38:25;103748.34;;;6.84;100.00
63111;BME280;49201;53.426;10.300;2023-02-13T04:40:51;103752.41;;;6.82;100.00
63111;BME280;49201;53.426;10.300;2023-02-13T04:43:16;103760.03;;;6.82;100.00
63111;BME280;49201;53.426;10.300;2023-02-13T04:45:42;103765.13;;;6.82;100.00
63111;BME280;49201;53.426;10.300;2023-02-13T04:48:07;103754.84;;;6.81;100.00
63111;BME280;49201;53.426;10.300;2023-02-13T04:50:33;103759.81;;;6.79;100.00
63111;BME280;49201;53.426;10.300;2023-02-13T04:52:58;103764.13;;;6.80;100.00
63111;BME280;49201;53.426;10.300;2023-02-13T04:55:26;103758.13;;;6.80;100.00
63111;BME280;49201;53.426;10.300;2023-02-13T04:57:52;103764.00;;;6.79;100.00
63111;BME280;49201;53.426;10.300;2023-02-13T05:00:20;103764.00;;;6.79;100.00
63111;BME280;49201;53.426;10.300;2023-02-13T05:02:45;103760.56;;;6.78;100.00
63111;BME280;49201;53.426;10.300;2023-02-13T05:05:11;103758.91;;;6.79;100.00
63111;BME280;49201;53.426;10.300;2023-02-13T05:07:36;103757.00;;;6.76;100.00
63111;BME280;49201;53.426;10.300;2023-02-13T05:10:02;103757.00;;;6.76;100.00
63111;BME280;49201;53.426;10.300;2023-02-13T05:12:27;103756.09;;;6.76;100.00
63111;BME280;49201;53.426;10.300;2023-02-13T05:14:53;103751.66;;;6.73;100.00
63111;BME280;49201;53.426;10.300;2023-02-13T05:17:18;103745.69;;;6.73;100.00
63111;BME280;49201;53.426;10.300;2023-02-13T05:19:44;103748.88;;;6.70;100.00
63111;BME280;49201;53.426;10.300;2023-02-13T05:22:09;103752.19;;;6.69;100.00
63111;BME280;49201;53.426;10.300;2023-02-13T05:24:54;103757.16;;;6.68;100.00
63111;BME280;49201;53.426;10.300;2023-02-13T05:27:19;103758.81;;;6.67;100.00
63111;BME280;49201;53.426;10.300;2023-02-13T05:29:45;103758.53;;;6.64;100.00
63111;BME280;49201;53.426;10.300;2023-02-13T05:32:10;103757.41;;;6.61;100.00
63111;BME280;49201;53.426;10.300;2023-02-13T05:34:36;103756.63;;;6.62;100.00
63111;BME280;49201;53.426;10.300;2023-02-13T05:37:01;103761.63;;;6.60;100.00
63111;BME280;49201;53.426;10.300;2023-02-13T05:39:27;103761.50;;;6.59;100.00
63111;BME280;49201;53.426;10.300;2023-02-13T05:41:52;103759.81;;;6.59;100.00
63111;BME280;49201;53.426;10.300;2023-02-13T05:44:17;103764.91;;;6.59;100.00
63111;BME280;49201;53.426;10.300;2023-02-13T05:46:43;103767.47;;;6.59;100.00
63111;BME280;49201;53.426;10.300;2023-02-13T05:49:11;103763.28;;;6.60;100.00
63111;BME280;49201;53.426;10.300;2023-02-13T05:51:38;103758.06;;;6.58;100.00
63111;BME280;49201;53.426;10.300;2023-02-13T05:54:03;103758.06;;;6.58;100.00
63111;BME280;49201;53.426;10.300;2023-02-13T05:56:29;103766.72;;;6.60;100.00
63111;BME280;49201;53.426;10.300;2023-02-13T05:58:55;103761.50;;;6.59;100.00
63111;BME280;49201;53.426;10.300;2023-02-13T06:01:22;103756.53;;;6.60;100.00
63111;BME280;49201;53.426;10.300;2023-02-13T06:03:48;103764.91;;;6.59;100.00
63111;BME280;49201;53.426;10.300;2023-02-13T06:06:14;103766.47;;;6.57;100.00
63111;BME280;49201;53.426;10.300;2023-02-13T06:08:40;103767.38;;;6.58;100.00
63111;BME280;49201;53.426;10.300;2023-02-13T06:11:05;103772.31;;;6.56;100.00
63111;BME280;49201;53.426;10.300;2023-02-13T06:13:31;103777.91;;;6.52;100.00
63111;BME280;49201;53.426;10.300;2023-02-13T06:15:56;103780.47;;;6.52;100.00
63111;BME280;49201;53.426;10.300;2023-02-13T06:18:22;103779.44;;;6.50;100.00
63111;BME280;49201;53.426;10.300;2023-02-13T06:20:48;103777.78;;;6.51;100.00
63111;BME280;49201;53.426;10.300;2023-02-13T06:23:13;103783.66;;;6.50;100.00
63111;BME280;49201;53.426;10.300;2023-02-13T06:25:40;103788.59;;;6.48;100.00
63111;BME280;49201;53.426;10.300;2023-02-13T06:28:05;103782.75;;;6.49;100.00
63111;BME280;49201;53.426;10.300;2023-02-13T06:30:31;103775.75;;;6.47;100.00
63111;BME280;49201;53.426;10.300;2023-02-13T06:32:57;103789.38;;;6.47;100.00
63111;BME280;49201;53.426;10.300;2023-02-13T06:35:22;103789.25;;;6.46;100.00
63111;BME280;49201;53.426;10.300;2023-02-13T06:37:48;103791.16;;;6.48;100.00
63111;BME280;49201;53.426;10.300;2023-02-13T06:40:14;103795.34;;;6.48;100.00
63111;BME280;49201;53.426;10.300;2023-02-13T06:42:43;103792.78;;;6.48;100.00
63111;BME280;49201;53.426;10.300;2023-02-13T06:45:09;103794.34;;;6.46;100.00
63111;BME280;49201;53.426;10.300;2023-02-13T06:47:35;103794.97;;;6.43;100.00
63111;BME280;49201;53.426;10.300;2023-02-13T06:50:01;103794.34;;;6.46;100.00
63111;BME280;49201;53.426;10.300;2023-02-13T06:52:26;103792.56;;;6.45;100.00
63111;BME280;49201;53.426;10.300;2023-02-13T06:54:52;103798.41;;;6.44;100.00
63111;BME280;49201;53.426;10.300;2023-02-13T06:57:17;103796.63;;;6.43;100.00
63111;BME280;49201;53.426;10.300;2023-02-13T06:59:43;103798.28;;;6.42;100.00
63111;BME280;49201;53.426;10.300;2023-02-13T07:02:10;103807.56;;;6.42;100.00
63111;BME280;49201;53.426;10.300;2023-02-13T07:04:35;103807.56;;;6.42;100.00
63111;BME280;49201;53.426;10.300;2023-02-13T07:07:01;103813.69;;;6.44;100.00
63111;BME280;49201;53.426;10.300;2023-02-13T07:09:26;103820.41;;;6.43;100.00
63111;BME280;49201;53.426;10.300;2023-02-13T07:11:52;103813.56;;;6.42;100.00
63111;BME280;49201;53.426;10.300;2023-02-13T07:14:17;103824.47;;;6.41;100.00
63111;BME280;49201;53.426;10.300;2023-02-13T07:16:43;103821.19;;;6.42;100.00
63111;BME280;49201;53.426;10.300;2023-02-13T07:19:08;103825.66;;;6.45;100.00
63111;BME280;49201;53.426;10.300;2023-02-13T07:21:34;103823.97;;;6.45;100.00
63111;BME280;49201;53.426;10.300;2023-02-13T07:24:00;103820.78;;;6.48;100.00
63111;BME280;49201;53.426;10.300;2023-02-13T07:26:25;103830.97;;;6.48;100.00
63111;BME280;49201;53.426;10.300;2023-02-13T07:28:51;103831.09;;;6.49;100.00
63111;BME280;49201;53.426;10.300;2023-02-13T07:31:17;103823.34;;;6.48;100.00
63111;BME280;49201;53.426;10.300;2023-02-13T07:33:42;103832.78;;;6.49;100.00
63111;BME280;49201;53.426;10.300;2023-02-13T07:36:08;103835.41;;;6.50;100.00
63111;BME280;49201;53.426;10.300;2023-02-13T07:38:33;103833.91;;;6.52;100.00
63111;BME280;49201;53.426;10.300;2023-02-13T07:41:00;103834.06;;;6.54;100.00
63111;BME280;49201;53.426;10.300;2023-02-13T07:43:27;103835.06;;;6.56;100.00
63111;BME280;49201;53.426;10.300;2023-02-13T07:45:52;103845.38;;;6.57;100.00
63111;BME280;49201;53.426;10.300;2023-02-13T07:48:23;103840.41;;;6.59;100.00
63111;BME280;49201;53.426;10.300;2023-02-13T07:50:49;103844.72;;;6.60;100.00
63111;BME280;49201;53.426;10.300;2023-02-13T07:53:14;103856.69;;;6.61;100.00
63111;BME280;49201;53.426;10.300;2023-02-13T07:55:40;103851.72;;;6.62;100.00
63111;BME280;49201;53.426;10.300;2023-02-13T07:58:05;103851.72;;;6.62;100.00
63111;BME280;49201;53.426;10.300;2023-02-13T08:00:31;103848.41;;;6.63;100.00
63111;BME280;49201;53.426;10.300;2023-02-13T08:03:00;103856.19;;;6.65;100.00
63111;BME280;49201;53.426;10.300;2023-02-13T08:05:26;103850.47;;;6.67;100.00
63111;BME280;49201;53.426;10.300;2023-02-13T08:07:51;103851.38;;;6.68;100.00
63111;BME280;49201;53.426;10.300;2023-02-13T08:10:18;103856.59;;;6.69;100.00
63111;BME280;49201;53.426;10.300;2023-02-13T08:13:03;103844.88;;;6.71;100.00
63111;BME280;49201;53.426;10.300;2023-02-13T08:15:29;103856.81;;;6.72;100.00
63111;BME280;49201;53.426;10.300;2023-02-13T08:17:55;103852.75;;;6.74;100.00
63111;BME280;49201;53.426;10.300;2023-02-13T08:20:20;103857.22;;;6.77;100.00
63111;BME280;49201;53.426;10.300;2023-02-13T08:22:46;103848.03;;;6.79;100.00
63111;BME280;49201;53.426;10.300;2023-02-13T08:25:11;103854.25;;;6.82;100.00
63111;BME280;49201;53.426;10.300;2023-02-13T08:27:37;103850.84;;;6.82;100.00
63111;BME280;49201;53.426;10.300;2023-02-13T08:30:04;103844.22;;;6.84;100.00
63111;BME280;49201;53.426;10.300;2023-02-13T08:32:30;103851.22;;;6.86;100.00
63111;BME280;49201;53.426;10.300;2023-02-13T08:34:55;103858.22;;;6.89;100.00
63111;BME280;49201;53.426;10.300;2023-02-13T08:37:21;103852.25;;;6.88;100.00
63111;BME280;49201;53.426;10.300;2023-02-13T08:39:47;103856.84;;;6.92;100.00
63111;BME280;49201;53.426;10.300;2023-02-13T08:42:13;103851.84;;;6.94;100.00
63111;BME280;49201;53.426;10.300;2023-02-13T08:44:38;103861.38;;;6.96;100.00
63111;BME280;49201;53.426;10.300;2023-02-13T08:47:06;103860.66;;;6.97;100.00
63111;BME280;49201;53.426;10.300;2023-02-13T08:49:32;103858.19;;;6.99;100.00
63111;BME280;49201;53.426;10.300;2023-02-13T08:51:58;103860.09;;;7.01;100.00
63111;BME280;49201;53.426;10.300;2023-02-13T08:54:24;103866.88;;;7.01;100.00
63111;BME280;49201;53.426;10.300;2023-02-13T08:56:50;103865.97;;;7.00;100.00
63111;BME280;49201;53.426;10.300;2023-02-13T08:59:15;103865.31;;;7.03;100.00
63111;BME280;49201;53.426;10.300;2023-02-13T09:01:41;103859.59;;;7.05;100.00
63111;BME280;49201;53.426;10.300;2023-02-13T09:04:06;103858.94;;;7.08;100.00
63111;BME280;49201;53.426;10.300;2023-02-13T09:06:32;103864.19;;;7.09;100.00
63111;BME280;49201;53.426;10.300;2023-02-13T09:08:57;103855.25;;;7.14;100.00
63111;BME280;49201;53.426;10.300;2023-02-13T09:11:23;103857.78;;;7.14;100.00
63111;BME280;49201;53.426;10.300;2023-02-13T09:13:52;103852.06;;;7.17;100.00
63111;BME280;49201;53.426;10.300;2023-02-13T09:16:17;103847.09;;;7.18;100.00
63111;BME280;49201;53.426;10.300;2023-02-13T09:18:46;103843.91;;;7.21;100.00
63111;BME280;49201;53.426;10.300;2023-02-13T09:21:11;103854.47;;;7.25;100.00
63111;BME280;49201;53.426;10.300;2023-02-13T09:23:39;103850.50;;;7.29;100.00
63111;BME280;49201;53.426;10.300;2023-02-13T09:26:08;103857.50;;;7.31;100.00
63111;BME280;49201;53.426;10.300;2023-02-13T09:28:34;103858.94;;;7.28;100.00
63111;BME280;49201;53.426;10.300;2023-02-13T09:31:17;103853.19;;;7.30;100.00
63111;BME280;49201;53.426;10.300;2023-02-13T09:33:45;103855.88;;;7.32;100.00
63111;BME280;49201;53.426;10.300;2023-02-13T09:36:14;103862.09;;;7.35;100.00
63111;BME280;49201;53.426;10.300;2023-02-13T09:38:41;103860.53;;;7.37;100.00
63111;BME280;49201;53.426;10.300;2023-02-13T09:41:14;103857.47;;;7.41;100.00
63111;BME280;49201;53.426;10.300;2023-02-13T09:43:51;103861.94;;;7.44;100.00
63111;BME280;49201;53.426;10.300;2023-02-13T09:46:27;103856.97;;;7.45;100.00
63111;BME280;49201;53.426;10.300;2023-02-13T09:48:56;103852.00;;;7.47;100.00
63111;BME280;49201;53.426;10.300;2023-02-13T09:51:24;103848.78;;;7.49;100.00
63111;BME280;49201;53.426;10.300;2023-02-13T09:54:00;103850.81;;;7.53;100.00
63111;BME280;49201;53.426;10.300;2023-02-13T09:56:36;103845.06;;;7.56;100.00
63111;BME280;49201;53.426;10.300;2023-02-13T10:08:11;103848.34;;;7.65;100.00
63111;BME280;49201;53.426;10.300;2023-02-13T10:16:14;103849.47;;;7.68;100.00
63111;BME280;49201;53.426;10.300;2023-02-13T10:18:50;103841.31;;;7.72;100.00
63111;BME280;49201;53.426;10.300;2023-02-13T10:21:20;103838.09;;;7.75;100.00
63111;BME280;49201;53.426;10.300;2023-02-13T10:23:49;103831.34;;;7.75;100.00
63111;BME280;49201;53.426;10.300;2023-02-13T10:26:20;103827.38;;;7.79;100.00
63111;BME280;49201;53.426;10.300;2023-02-13T10:28:59;103834.38;;;7.81;100.00
63111;BME280;49201;53.426;10.300;2023-02-13T10:31:48;103829.88;;;7.89;100.00
63111;BME280;49201;53.426;10.300;2023-02-13T10:34:16;103834.97;;;7.89;100.00
63111;BME280;49201;53.426;10.300;2023-02-13T10:36:46;103835.22;;;7.92;100.00
63111;BME280;49201;53.426;10.300;2023-02-13T10:41:54;103839.88;;;7.97;100.00
63111;BME280;49201;53.426;10.300;2023-02-13T10:49:29;103841.13;;;8.02;100.00
63111;BME280;49201;53.426;10.300;2023-02-13T11:00:25;103830.91;;;8.12;100.00
63111;BME280;49201;53.426;10.300;2023-02-13T11:02:55;103835.88;;;8.11;100.00
63111;BME280;49201;53.426;10.300;2023-02-13T11:05:23;103830.25;;;8.15;100.00
63111;BME280;49201;53.426;10.300;2023-02-13T11:07:49;103829.75;;;8.09;100.00
63111;BME280;49201;53.426;10.300;2023-02-13T11:10:23;103833.91;;;8.18;100.00
63111;BME280;49201;53.426;10.300;2023-02-13T11:12:49;103832.50;;;8.22;100.00
63111;BME280;49201;53.426;10.300;2023-02-13T11:15:29;103832.38;;;8.20;100.00
63111;BME280;49201;53.426;10.300;2023-02-13T11:17:59;103826.88;;;8.26;100.00
63111;BME280;49201;53.426;10.300;2023-02-13T11:20:40;103827.00;;;8.27;100.00
63111;BME280;49201;53.426;10.300;2023-02-13T11:26:03;103829.22;;;8.34;100.00
63111;BME280;49201;53.426;10.300;2023-02-13T11:28:36;103827.44;;;8.33;100.00
63111;BME280;49201;53.426;10.300;2023-02-13T11:31:27;103830.91;;;8.34;100.00
63111;BME280;49201;53.426;10.300;2023-02-13T11:33:53;103826.47;;;8.31;100.00
63111;BME280;49201;53.426;10.300;2023-02-13T11:36:28;103827.19;;;8.30;100.00
63111;BME280;49201;53.426;10.300;2023-02-13T11:39:04;103832.31;;;8.30;100.00
63111;BME280;49201;53.426;10.300;2023-02-13T11:41:38;103830.25;;;8.36;100.00
63111;BME280;49201;53.426;10.300;2023-02-13T11:44:19;103837.91;;;8.36;100.00
63111;BME280;49201;53.426;10.300;2023-02-13T11:46:47;103836.88;;;8.34;100.00
63111;BME280;49201;53.426;10.300;2023-02-13T11:49:18;103832.22;;;8.29;100.00
63111;BME280;49201;53.426;10.300;2023-02-13T11:51:49;103829.09;;;8.33;100.00
63111;BME280;49201;53.426;10.300;2023-02-13T11:59:49;103832.69;;;8.35;100.00
63111;BME280;49201;53.426;10.300;2023-02-13T12:02:28;103835.22;;;8.35;100.00
63111;BME280;49201;53.426;10.300;2023-02-13T12:05:18;103823.38;;;8.35;100.00
63111;BME280;49201;53.426;10.300;2023-02-13T12:07:45;103826.91;;;8.37;100.00
63111;BME280;49201;53.426;10.300;2023-02-13T12:12:45;103818.84;;;8.43;100.00
63111;BME280;49201;53.426;10.300;2023-02-13T12:15:35;103814.84;;;8.46;100.00
63111;BME280;49201;53.426;10.300;2023-02-13T12:18:25;103818.06;;;8.44;100.00
63111;BME280;49201;53.426;10.300;2023-02-13T12:21:19;103819.84;;;8.45;100.00
63111;BME280;49201;53.426;10.300;2023-02-13T12:23:58;103818.75;;;8.53;100.00
63111;BME280;49201;53.426;10.300;2023-02-13T12:26:41;103814.75;;;8.56;100.00
63111;BME280;49201;53.426;10.300;2023-02-13T12:50:32;103793.91;;;8.62;100.00
63111;BME280;49201;53.426;10.300;2023-02-13T13:01:53;103791.47;;;8.63;100.00
63111;BME280;49201;53.426;10.300;2023-02-13T13:12:14;103795.56;;;8.73;100.00
63111;BME280;49201;53.426;10.300;2023-02-13T13:17:59;103792.25;;;8.74;100.00
63111;BME280;49201;53.426;10.300;2023-02-13T13:20:42;103783.72;;;8.73;100.00
63111;BME280;49201;53.426;10.300;2023-02-13T13:23:30;103791.50;;;8.75;100.00
63111;BME280;49201;53.426;10.300;2023-02-13T13:28:39;103785.47;;;8.74;100.00
63111;BME280;49201;53.426;10.300;2023-02-13T13:31:06;103783.34;;;8.69;100.00
63111;BME280;49201;53.426;10.300;2023-02-13T13:33:34;103777.69;;;8.73;100.00
63111;BME280;49201;53.426;10.300;2023-02-13T13:38:52;103781.34;;;8.65;100.00
63111;BME280;49201;53.426;10.300;2023-02-13T13:49:53;103767.84;;;8.77;100.00
63111;BME280;49201;53.426;10.300;2023-02-13T13:54:45;103769.91;;;8.71;100.00
63111;BME280;49201;53.426;10.300;2023-02-13T13:57:16;103771.47;;;8.69;100.00
63111;BME280;49201;53.426;10.300;2023-02-13T14:05:22;103773.78;;;8.66;100.00
63111;BME280;49201;53.426;10.300;2023-02-13T14:07:51;103771.25;;;8.66;100.00
63111;BME280;49201;53.426;10.300;2023-02-13T14:12:58;103770.47;;;8.67;100.00
63111;BME280;49201;53.426;10.300;2023-02-13T14:15:49;103773.00;;;8.67;100.00
63111;BME280;49201;53.426;10.300;2023-02-13T14:25:36;103779.56;;;8.64;100.00
63111;BME280;49201;53.426;10.300;2023-02-13T14:28:03;103768.25;;;8.60;100.00
63111;BME280;49201;53.426;10.300;2023-02-13T14:30:32;103772.44;;;8.60;100.00
63111;BME280;49201;53.426;10.300;2023-02-13T14:33:04;103770.56;;;8.57;100.00
63111;BME280;49201;53.426;10.300;2023-02-13T14:35:35;103771.34;;;8.56;100.00
63111;BME280;49201;53.426;10.300;2023-02-13T14:38:06;103770.44;;;8.56;100.00
63111;BME280;49201;53.426;10.300;2023-02-13T14:40:49;103774.13;;;8.48;100.00
63111;BME280;49201;53.426;10.300;2023-02-13T14:43:32;103774.00;;;8.46;100.00
63111;BME280;49201;53.426;10.300;2023-02-13T14:46:23;103775.63;;;8.46;100.00
63111;BME280;49201;53.426;10.300;2023-02-13T14:49:00;103773.09;;;8.46;100.00
63111;BME280;49201;53.426;10.300;2023-02-13T14:51:45;103774.53;;;8.42;100.00
63111;BME280;49201;53.426;10.300;2023-02-13T14:54:19;103771.97;;;8.42;100.00
63111;BME280;49201;53.426;10.300;2023-02-13T14:56:49;103767.66;;;8.41;100.00
63111;BME280;49201;53.426;10.300;2023-02-13T14:59:18;103772.75;;;8.41;100.00
63111;BME280;49201;53.426;10.300;2023-02-13T15:01:51;103765.75;;;8.39;100.00
63111;BME280;49201;53.426;10.300;2023-02-13T15:04:22;103753.88;;;8.39;100.00
63111;BME280;49201;53.426;10.300;2023-02-13T15:06:52;103750.75;;;8.32;100.00
63111;BME280;49201;53.426;10.300;2023-02-13T15:09:25;103760.84;;;8.30;100.00
63111;BME280;49201;53.426;10.300;2023-02-13T15:11:52;103753.97;;;8.29;100.00
63111;BME280;49201;53.426;10.300;2023-02-13T15:14:21;103753.09;;;8.29;100.00
63111;BME280;49201;53.426;10.300;2023-02-13T15:16:51;103749.63;;;8.28;100.00
63111;BME280;49201;53.426;10.300;2023-02-13T15:19:19;103737.53;;;8.26;100.00
63111;BME280;49201;53.426;10.300;2023-02-13T15:21:49;103735.63;;;8.23;100.00
63111;BME280;49201;53.426;10.300;2023-02-13T15:24:15;103747.38;;;8.21;100.00
63111;BME280;49201;53.426;10.300;2023-02-13T15:26:41;103751.63;;;8.21;100.00